sensor_id;sensor_type;location;lat;lon;timestamp;temperature;humidity
54158;DHT22;40065;49.894;10.358;2023-08-17T00:01:44;21.70;99.90
54158;DHT22;40065;49.894;10.358;2023-08-17T00:06:45;21.00;99.90
54158;DHT22;40065;49.894;10.358;2023-08-17T00:11:48;20.60;99.90
54158;DHT22;40065;49.894;10.358;2023-08-17T00:16:50;20.60;99.90
54158;DHT22;40065;49.894;10.358;2023-08-17T00:21:53;20.50;99.90
54158;DHT22;40065;49.894;10.358;2023-08-17T00:26:55;20.30;99.90
54158;DHT22;40065;49.894;10.358;2023-08-17T00:31:57;20.50;99.90
54158;DHT22;40065;49.894;10.358;2023-08-17T00:36:59;20.70;99.90
54158;DHT22;40065;49.894;10.358;2023-08-17T00:42:01;20.70;99.90
54158;DHT22;40065;49.894;10.358;2023-08-17T00:47:03;20.60;99.90
54158;DHT22;40065;49.894;10.358;2023-08-17T00:52:06;20.70;99.90
54158;DHT22;40065;49.894;10.358;2023-08-17T00:57:09;20.70;99.90
54158;DHT22;40065;49.894;10.358;2023-08-17T01:02:11;20.70;99.90
54158;DHT22;40065;49.894;10.358;2023-08-17T01:07:13;20.60;99.90
54158;DHT22;40065;49.894;10.358;2023-08-17T01:12:31;20.60;99.90
54158;DHT22;40065;49.894;10.358;2023-08-17T01:18:00;20.60;99.90
54158;DHT22;40065;49.894;10.358;2023-08-17T01:23:06;20.70;99.90
54158;DHT22;40065;49.894;10.358;2023-08-17T01:28:09;20.70;99.90
54158;DHT22;40065;49.894;10.358;2023-08-17T01:33:16;20.60;99.90
54158;DHT22;40065;49.894;10.358;2023-08-17T01:38:21;20.60;99.90
54158;DHT22;40065;49.894;10.358;2023-08-17T01:43:24;20.60;99.90
54158;DHT22;40065;49.894;10.358;2023-08-17T01:48:26;20.60;99.90
54158;DHT22;40065;49.894;10.358;2023-08-17T01:53:28;20.40;99.90
54158;DHT22;40065;49.894;10.358;2023-08-17T01:58:30;20.20;99.90
54158;DHT22;40065;49.894;10.358;2023-08-17T02:03:31;20.00;99.90
54158;DHT22;40065;49.894;10.358;2023-08-17T02:08:33;19.80;99.90
54158;DHT22;40065;49.894;10.358;2023-08-17T02:13:36;19.70;99.90
54158;DHT22;40065;49.894;10.358;2023-08-17T02:18:38;19.70;99.90
54158;DHT22;40065;49.894;10.358;2023-08-17T02:23:40;19.70;99.90
54158;DHT22;40065;49.894;10.358;2023-08-17T02:28:42;19.70;99.90
54158;DHT22;40065;49.894;10.358;2023-08-17T02:33:44;19.70;99.90
54158;DHT22;40065;49.894;10.358;2023-08-17T02:38:46;19.60;99.90
54158;DHT22;40065;49.894;10.358;2023-08-17T02:43:48;19.60;99.90
54158;DHT22;40065;49.894;10.358;2023-08-17T02:48:50;19.60;99.90
54158;DHT22;40065;49.894;10.358;2023-08-17T02:53:53;19.70;99.90
54158;DHT22;40065;49.894;10.358;2023-08-17T02:58:55;19.70;99.90
54158;DHT22;40065;49.894;10.358;2023-08-17T03:03:56;19.50;99.90
54158;DHT22;40065;49.894;10.358;2023-08-17T03:08:58;19.50;99.90
54158;DHT22;40065;49.894;10.358;2023-08-17T03:14:00;19.40;99.90
54158;DHT22;40065;49.894;10.358;2023-08-17T03:19:03;19.20;99.90
54158;DHT22;40065;49.894;10.358;2023-08-17T03:24:06;19.00;99.90
54158;DHT22;40065;49.894;10.358;2023-08-17T03:29:09;19.10;99.90
54158;DHT22;40065;49.894;10.358;2023-08-17T03:34:11;19.20;99.90
54158;DHT22;40065;49.894;10.358;2023-08-17T03:39:13;19.30;99.90
54158;DHT22;40065;49.894;10.358;2023-08-17T03:44:15;19.00;99.90
54158;DHT22;40065;49.894;10.358;2023-08-17T03:49:17;18.90;99.90
54158;DHT22;40065;49.894;10.358;2023-08-17T03:54:19;18.80;99.90
54158;DHT22;40065;49.894;10.358;2023-08-17T03:59:22;18.70;99.90
54158;DHT22;40065;49.894;10.358;2023-08-17T04:04:24;18.70;99.90
54158;DHT22;40065;49.894;10.358;2023-08-17T04:09:26;18.70;99.90
54158;DHT22;40065;49.894;10.358;2023-08-17T04:14:28;18.70;99.90
54158;DHT22;40065;49.894;10.358;2023-08-17T04:19:30;18.70;99.90
54158;DHT22;40065;49.894;10.358;2023-08-17T04:24:32;18.80;99.90
54158;DHT22;40065;49.894;10.358;2023-08-17T04:29:34;18.70;99.90
54158;DHT22;40065;49.894;10.358;2023-08-17T04:34:37;18.70;99.90
54158;DHT22;40065;49.894;10.358;2023-08-17T04:39:39;18.80;99.90
54158;DHT22;40065;49.894;10.358;2023-08-17T04:44:42;18.80;99.90
54158;DHT22;40065;49.894;10.358;2023-08-17T04:49:45;18.80;99.90
54158;DHT22;40065;49.894;10.358;2023-08-17T04:54:47;19.00;99.90
54158;DHT22;40065;49.894;10.358;2023-08-17T04:59:49;19.30;99.90
54158;DHT22;40065;49.894;10.358;2023-08-17T05:04:51;19.70;99.90
54158;DHT22;40065;49.894;10.358;2023-08-17T05:09:53;20.00;99.90
54158;DHT22;40065;49.894;10.358;2023-08-17T05:14:56;20.90;99.90
54158;DHT22;40065;49.894;10.358;2023-08-17T05:19:59;24.50;99.90
54158;DHT22;40065;49.894;10.358;2023-08-17T05:25:01;27.00;99.90
54158;DHT22;40065;49.894;10.358;2023-08-17T05:30:04;28.10;99.70
54158;DHT22;40065;49.894;10.358;2023-08-17T05:35:07;29.10;96.70
54158;DHT22;40065;49.894;10.358;2023-08-17T05:40:09;30.70;94.90
54158;DHT22;40065;49.894;10.358;2023-08-17T05:45:12;30.80;93.70
54158;DHT22;40065;49.894;10.358;2023-08-17T05:50:14;31.40;93.10
54158;DHT22;40065;49.894;10.358;2023-08-17T05:55:16;31.90;92.10
54158;DHT22;40065;49.894;10.358;2023-08-17T06:00:18;32.20;90.20
54158;DHT22;40065;49.894;10.358;2023-08-17T06:05:23;32.20;90.00
54158;DHT22;40065;49.894;10.358;2023-08-17T06:10:27;32.70;89.00
54158;DHT22;40065;49.894;10.358;2023-08-17T06:15:29;32.10;87.80
54158;DHT22;40065;49.894;10.358;2023-08-17T06:20:31;32.50;89.20
54158;DHT22;40065;49.894;10.358;2023-08-17T06:25:33;33.60;87.80
54158;DHT22;40065;49.894;10.358;2023-08-17T06:30:35;34.60;82.90
54158;DHT22;40065;49.894;10.358;2023-08-17T06:35:37;33.40;83.50
54158;DHT22;40065;49.894;10.358;2023-08-17T06:40:39;35.10;83.50
54158;DHT22;40065;49.894;10.358;2023-08-17T06:45:41;35.30;81.50
54158;DHT22;40065;49.894;10.358;2023-08-17T06:50:43;35.30;81.80
54158;DHT22;40065;49.894;10.358;2023-08-17T06:55:45;34.60;82.40
54158;DHT22;40065;49.894;10.358;2023-08-17T07:00:47;34.80;79.70
54158;DHT22;40065;49.894;10.358;2023-08-17T07:05:50;35.00;80.50
54158;DHT22;40065;49.894;10.358;2023-08-17T07:10:52;34.30;79.40
54158;DHT22;40065;49.894;10.358;2023-08-17T07:15:53;33.80;81.30
54158;DHT22;40065;49.894;10.358;2023-08-17T07:20:56;35.10;80.00
54158;DHT22;40065;49.894;10.358;2023-08-17T07:26:00;36.10;79.10
54158;DHT22;40065;49.894;10.358;2023-08-17T07:31:01;36.50;77.60
54158;DHT22;40065;49.894;10.358;2023-08-17T07:36:04;36.40;75.70
54158;DHT22;40065;49.894;10.358;2023-08-17T07:41:06;36.70;76.80
54158;DHT22;40065;49.894;10.358;2023-08-17T07:46:08;37.10;74.90
54158;DHT22;40065;49.894;10.358;2023-08-17T07:51:10;36.50;75.70
54158;DHT22;40065;49.894;10.358;2023-08-17T07:56:12;35.80;78.50
54158;DHT22;40065;49.894;10.358;2023-08-17T08:01:14;35.90;76.90
54158;DHT22;40065;49.894;10.358;2023-08-17T08:06:16;36.20;76.90
54158;DHT22;40065;49.894;10.358;2023-08-17T08:11:18;35.80;77.90
54158;DHT22;40065;49.894;10.358;2023-08-17T08:16:20;35.90;76.40
54158;DHT22;40065;49.894;10.358;2023-08-17T08:21:22;35.60;78.80
54158;DHT22;40065;49.894;10.358;2023-08-17T08:26:23;35.70;77.90
54158;DHT22;40065;49.894;10.358;2023-08-17T08:31:25;35.70;77.80
54158;DHT22;40065;49.894;10.358;2023-08-17T08:36:27;36.00;77.90
54158;DHT22;40065;49.894;10.358;2023-08-17T08:41:29;35.10;76.10
54158;DHT22;40065;49.894;10.358;2023-08-17T08:46:33;35.70;76.70
54158;DHT22;40065;49.894;10.358;2023-08-17T08:51:39;35.60;78.50
54158;DHT22;40065;49.894;10.358;2023-08-17T08:56:44;36.10;78.30
54158;DHT22;40065;49.894;10.358;2023-08-17T09:01:49;34.20;78.10
54158;DHT22;40065;49.894;10.358;2023-08-17T09:06:53;34.50;82.30
54158;DHT22;40065;49.894;10.358;2023-08-17T09:11:55;34.30;81.00
54158;DHT22;40065;49.894;10.358;2023-08-17T09:16:57;32.60;84.70
54158;DHT22;40065;49.894;10.358;2023-08-17T09:22:00;32.70;83.40
54158;DHT22;40065;49.894;10.358;2023-08-17T09:27:03;31.40;88.50
54158;DHT22;40065;49.894;10.358;2023-08-17T09:32:11;33.50;84.40
54158;DHT22;40065;49.894;10.358;2023-08-17T09:37:15;34.40;84.30
54158;DHT22;40065;49.894;10.358;2023-08-17T09:42:17;34.90;82.30
54158;DHT22;40065;49.894;10.358;2023-08-17T09:47:20;33.30;84.90
54158;DHT22;40065;49.894;10.358;2023-08-17T09:52:23;34.00;82.50
54158;DHT22;40065;49.894;10.358;2023-08-17T09:57:28;32.60;88.90
54158;DHT22;40065;49.894;10.358;2023-08-17T10:02:30;34.30;85.20
54158;DHT22;40065;49.894;10.358;2023-08-17T10:07:35;33.80;84.80
54158;DHT22;40065;49.894;10.358;2023-08-17T10:12:44;34.90;85.80
54158;DHT22;40065;49.894;10.358;2023-08-17T10:23:18;36.00;79.10
54158;DHT22;40065;49.894;10.358;2023-08-17T10:28:22;34.60;83.80
54158;DHT22;40065;49.894;10.358;2023-08-17T10:33:26;34.90;83.70
54158;DHT22;40065;49.894;10.358;2023-08-17T10:38:28;34.10;83.50
54158;DHT22;40065;49.894;10.358;2023-08-17T10:43:33;32.20;88.50
54158;DHT22;40065;49.894;10.358;2023-08-17T10:48:36;32.80;89.60
54158;DHT22;40065;49.894;10.358;2023-08-17T10:53:39;33.10;88.50
54158;DHT22;40065;49.894;10.358;2023-08-17T10:58:44;34.10;84.90
54158;DHT22;40065;49.894;10.358;2023-08-17T11:03:46;33.60;86.70
54158;DHT22;40065;49.894;10.358;2023-08-17T11:08:53;32.40;87.00
54158;DHT22;40065;49.894;10.358;2023-08-17T11:13:57;33.00;87.10
54158;DHT22;40065;49.894;10.358;2023-08-17T11:19:00;32.90;88.90
54158;DHT22;40065;49.894;10.358;2023-08-17T11:24:02;34.30;88.30
54158;DHT22;40065;49.894;10.358;2023-08-17T11:29:10;35.30;83.60
54158;DHT22;40065;49.894;10.358;2023-08-17T11:34:14;35.10;85.50
54158;DHT22;40065;49.894;10.358;2023-08-17T11:39:16;34.40;83.10
54158;DHT22;40065;49.894;10.358;2023-08-17T11:44:22;34.70;85.50
54158;DHT22;40065;49.894;10.358;2023-08-17T11:49:25;35.60;82.70
54158;DHT22;40065;49.894;10.358;2023-08-17T11:54:27;34.50;85.00
54158;DHT22;40065;49.894;10.358;2023-08-17T11:59:29;34.20;85.50
54158;DHT22;40065;49.894;10.358;2023-08-17T12:04:34;34.30;85.30
54158;DHT22;40065;49.894;10.358;2023-08-17T12:09:36;34.40;81.50
54158;DHT22;40065;49.894;10.358;2023-08-17T12:14:41;33.90;86.50
54158;DHT22;40065;49.894;10.358;2023-08-17T12:19:48;34.60;83.80
54158;DHT22;40065;49.894;10.358;2023-08-17T12:24:50;34.30;83.60
54158;DHT22;40065;49.894;10.358;2023-08-17T12:29:52;35.20;83.30
54158;DHT22;40065;49.894;10.358;2023-08-17T12:34:54;33.80;82.90
54158;DHT22;40065;49.894;10.358;2023-08-17T12:39:55;34.90;82.60
54158;DHT22;40065;49.894;10.358;2023-08-17T12:44:57;35.40;80.70
54158;DHT22;40065;49.894;10.358;2023-08-17T12:49:59;35.90;79.50
54158;DHT22;40065;49.894;10.358;2023-08-17T12:55:02;34.70;82.50
54158;DHT22;40065;49.894;10.358;2023-08-17T13:00:04;34.90;83.90
54158;DHT22;40065;49.894;10.358;2023-08-17T13:05:06;36.10;78.50
54158;DHT22;40065;49.894;10.358;2023-08-17T13:10:08;35.70;81.80
54158;DHT22;40065;49.894;10.358;2023-08-17T13:15:10;36.10;80.10
54158;DHT22;40065;49.894;10.358;2023-08-17T13:20:13;36.30;78.80
54158;DHT22;40065;49.894;10.358;2023-08-17T13:25:15;36.50;80.10
54158;DHT22;40065;49.894;10.358;2023-08-17T13:30:17;37.00;78.90
54158;DHT22;40065;49.894;10.358;2023-08-17T13:35:19;36.30;79.40
54158;DHT22;40065;49.894;10.358;2023-08-17T13:40:21;35.80;78.20
54158;DHT22;40065;49.894;10.358;2023-08-17T13:45:23;34.90;82.00
54158;DHT22;40065;49.894;10.358;2023-08-17T13:50:25;34.00;81.70
54158;DHT22;40065;49.894;10.358;2023-08-17T13:55:27;34.50;82.30
54158;DHT22;40065;49.894;10.358;2023-08-17T14:00:30;34.80;82.60
54158;DHT22;40065;49.894;10.358;2023-08-17T14:05:32;34.80;82.50
54158;DHT22;40065;49.894;10.358;2023-08-17T14:10:34;34.90;82.80
54158;DHT22;40065;49.894;10.358;2023-08-17T14:15:41;35.20;83.20
54158;DHT22;40065;49.894;10.358;2023-08-17T14:20:42;34.90;80.10
54158;DHT22;40065;49.894;10.358;2023-08-17T14:25:44;34.60;81.10
54158;DHT22;40065;49.894;10.358;2023-08-17T14:30:46;34.90;82.00
54158;DHT22;40065;49.894;10.358;2023-08-17T14:35:53;34.80;81.00
54158;DHT22;40065;49.894;10.358;2023-08-17T14:40:55;33.60;83.10
54158;DHT22;40065;49.894;10.358;2023-08-17T14:45:57;32.80;84.50
54158;DHT22;40065;49.894;10.358;2023-08-17T14:51:00;32.20;86.20
54158;DHT22;40065;49.894;10.358;2023-08-17T14:56:01;31.20;89.00
54158;DHT22;40065;49.894;10.358;2023-08-17T15:01:03;30.50;90.00
54158;DHT22;40065;49.894;10.358;2023-08-17T15:06:08;30.20;90.90
54158;DHT22;40065;49.894;10.358;2023-08-17T15:11:28;29.80;91.20
54158;DHT22;40065;49.894;10.358;2023-08-17T15:16:30;29.50;91.40
54158;DHT22;40065;49.894;10.358;2023-08-17T15:21:32;29.10;91.70
54158;DHT22;40065;49.894;10.358;2023-08-17T15:26:34;28.90;92.20
54158;DHT22;40065;49.894;10.358;2023-08-17T15:31:36;28.70;92.20
54158;DHT22;40065;49.894;10.358;2023-08-17T15:36:38;28.60;92.50
54158;DHT22;40065;49.894;10.358;2023-08-17T15:41:39;28.30;93.20
54158;DHT22;40065;49.894;10.358;2023-08-17T15:46:41;28.10;93.70
54158;DHT22;40065;49.894;10.358;2023-08-17T15:51:43;28.00;94.40
54158;DHT22;40065;49.894;10.358;2023-08-17T15:56:45;27.80;95.20
54158;DHT22;40065;49.894;10.358;2023-08-17T16:01:47;27.70;94.90
54158;DHT22;40065;49.894;10.358;2023-08-17T16:06:49;27.70;95.10
54158;DHT22;40065;49.894;10.358;2023-08-17T16:11:51;27.90;95.00
54158;DHT22;40065;49.894;10.358;2023-08-17T16:16:52;27.40;93.90
54158;DHT22;40065;49.894;10.358;2023-08-17T16:21:58;26.70;95.50
54158;DHT22;40065;49.894;10.358;2023-08-17T16:27:00;26.20;96.80
54158;DHT22;40065;49.894;10.358;2023-08-17T16:32:03;26.00;97.20
54158;DHT22;40065;49.894;10.358;2023-08-17T16:37:08;25.90;97.50
54158;DHT22;40065;49.894;10.358;2023-08-17T16:42:10;25.60;97.50
54158;DHT22;40065;49.894;10.358;2023-08-17T16:47:13;25.40;97.90
54158;DHT22;40065;49.894;10.358;2023-08-17T16:52:23;25.00;98.60
54158;DHT22;40065;49.894;10.358;2023-08-17T16:57:25;24.90;99.70
54158;DHT22;40065;49.894;10.358;2023-08-17T17:02:27;24.80;99.90
54158;DHT22;40065;49.894;10.358;2023-08-17T17:07:29;24.90;99.90
54158;DHT22;40065;49.894;10.358;2023-08-17T17:12:31;25.00;99.90
54158;DHT22;40065;49.894;10.358;2023-08-17T17:17:32;25.00;99.90
54158;DHT22;40065;49.894;10.358;2023-08-17T17:22:34;25.10;99.90
54158;DHT22;40065;49.894;10.358;2023-08-17T17:27:36;25.20;99.90
54158;DHT22;40065;49.894;10.358;2023-08-17T17:32:38;25.10;99.90
54158;DHT22;40065;49.894;10.358;2023-08-17T17:37:40;25.10;99.90
54158;DHT22;40065;49.894;10.358;2023-08-17T17:42:42;25.10;99.90
54158;DHT22;40065;49.894;10.358;2023-08-17T17:47:44;25.00;99.90
54158;DHT22;40065;49.894;10.358;2023-08-17T17:52:45;24.80;99.90
54158;DHT22;40065;49.894;10.358;2023-08-17T17:57:49;24.70;99.90
54158;DHT22;40065;49.894;10.358;2023-08-17T18:02:51;24.60;99.90
54158;DHT22;40065;49.894;10.358;2023-08-17T18:07:53;24.50;99.90
54158;DHT22;40065;49.894;10.358;2023-08-17T18:12:54;24.40;99.90
54158;DHT22;40065;49.894;10.358;2023-08-17T18:17:56;24.30;99.90
54158;DHT22;40065;49.894;10.358;2023-08-17T18:22:58;24.20;99.90
54158;DHT22;40065;49.894;10.358;2023-08-17T18:28:00;24.20;99.90
54158;DHT22;40065;49.894;10.358;2023-08-17T18:33:02;24.10;99.90
54158;DHT22;40065;49.894;10.358;2023-08-17T18:38:04;24.00;99.90
54158;DHT22;40065;49.894;10.358;2023-08-17T18:43:06;24.00;99.90
54158;DHT22;40065;49.894;10.358;2023-08-17T18:48:08;23.90;99.90
54158;DHT22;40065;49.894;10.358;2023-08-17T18:53:10;24.00;99.90
54158;DHT22;40065;49.894;10.358;2023-08-17T18:58:12;24.00;99.90
54158;DHT22;40065;49.894;10.358;2023-08-17T19:03:14;23.70;99.90
54158;DHT22;40065;49.894;10.358;2023-08-17T19:08:16;23.50;99.90
54158;DHT22;40065;49.894;10.358;2023-08-17T19:13:17;23.50;99.90
54158;DHT22;40065;49.894;10.358;2023-08-17T19:18:19;23.20;99.90
54158;DHT22;40065;49.894;10.358;2023-08-17T19:23:22;23.10;99.90
54158;DHT22;40065;49.894;10.358;2023-08-17T19:28:23;22.40;99.90
54158;DHT22;40065;49.894;10.358;2023-08-17T19:33:25;22.00;99.90
54158;DHT22;40065;49.894;10.358;2023-08-17T19:38:27;21.70;99.90
54158;DHT22;40065;49.894;10.358;2023-08-17T19:43:29;21.60;99.90
54158;DHT22;40065;49.894;10.358;2023-08-17T19:48:31;21.60;99.90
54158;DHT22;40065;49.894;10.358;2023-08-17T19:53:32;21.60;99.90
54158;DHT22;40065;49.894;10.358;2023-08-17T19:58:37;21.60;99.90
54158;DHT22;40065;49.894;10.358;2023-08-17T20:03:39;21.40;99.90
54158;DHT22;40065;49.894;10.358;2023-08-17T20:08:42;21.40;99.90
54158;DHT22;40065;49.894;10.358;2023-08-17T20:13:44;21.40;99.90
54158;DHT22;40065;49.894;10.358;2023-08-17T20:18:46;21.40;99.90
54158;DHT22;40065;49.894;10.358;2023-08-17T20:23:48;21.40;99.90
54158;DHT22;40065;49.894;10.358;2023-08-17T20:28:51;21.30;99.90
54158;DHT22;40065;49.894;10.358;2023-08-17T20:33:53;21.40;99.90
54158;DHT22;40065;49.894;10.358;2023-08-17T20:38:54;21.30;99.90
54158;DHT22;40065;49.894;10.358;2023-08-17T20:43:56;21.20;99.90
54158;DHT22;40065;49.894;10.358;2023-08-17T20:48:58;21.10;99.90
54158;DHT22;40065;49.894;10.358;2023-08-17T20:54:00;21.10;99.90
54158;DHT22;40065;49.894;10.358;2023-08-17T20:59:02;21.20;99.90
54158;DHT22;40065;49.894;10.358;2023-08-17T21:04:04;21.00;99.90
54158;DHT22;40065;49.894;10.358;2023-08-17T21:09:07;21.10;99.90
54158;DHT22;40065;49.894;10.358;2023-08-17T21:14:09;21.00;99.90
54158;DHT22;40065;49.894;10.358;2023-08-17T21:19:11;21.20;99.90
54158;DHT22;40065;49.894;10.358;2023-08-17T21:24:13;21.20;99.90
54158;DHT22;40065;49.894;10.358;2023-08-17T21:29:15;20.90;99.90
54158;DHT22;40065;49.894;10.358;2023-08-17T21:34:16;20.80;99.90
54158;DHT22;40065;49.894;10.358;2023-08-17T21:39:21;20.80;99.90
54158;DHT22;40065;49.894;10.358;2023-08-17T21:44:23;20.70;99.90
54158;DHT22;40065;49.894;10.358;2023-08-17T21:49:26;20.60;99.90
54158;DHT22;40065;49.894;10.358;2023-08-17T21:54:28;20.50;99.90
54158;DHT22;40065;49.894;10.358;2023-08-17T21:59:30;20.60;99.90
54158;DHT22;40065;49.894;10.358;2023-08-17T22:04:32;20.60;99.90
54158;DHT22;40065;49.894;10.358;2023-08-17T22:09:34;20.40;99.90
54158;DHT22;40065;49.894;10.358;2023-08-17T22:14:36;20.30;99.90
54158;DHT22;40065;49.894;10.358;2023-08-17T22:19:38;20.30;99.90
54158;DHT22;40065;49.894;10.358;2023-08-17T22:24:40;20.10;99.90
54158;DHT22;40065;49.894;10.358;2023-08-17T22:29:52;20.10;99.90
54158;DHT22;40065;49.894;10.358;2023-08-17T22:34:54;20.00;99.90
54158;DHT22;40065;49.894;10.358;2023-08-17T22:39:56;20.00;99.90
54158;DHT22;40065;49.894;10.358;2023-08-17T22:44:57;19.90;99.90
54158;DHT22;40065;49.894;10.358;2023-08-17T22:49:59;19.80;99.90
54158;DHT22;40065;49.894;10.358;2023-08-17T22:55:01;19.90;99.90
54158;DHT22;40065;49.894;10.358;2023-08-17T23:00:04;19.70;99.90
54158;DHT22;40065;49.894;10.358;2023-08-17T23:05:08;19.50;99.90
54158;DHT22;40065;49.894;10.358;2023-08-17T23:10:10;19.40;99.90
54158;DHT22;40065;49.894;10.358;2023-08-17T23:15:13;19.40;99.90
54158;DHT22;40065;49.894;10.358;2023-08-17T23:20:15;19.40;99.90
54158;DHT22;40065;49.894;10.358;2023-08-17T23:25:17;19.20;99.90
54158;DHT22;40065;49.894;10.358;2023-08-17T23:30:19;19.30;99.90
54158;DHT22;40065;49.894;10.358;2023-08-17T23:35:25;19.30;99.90
54158;DHT22;40065;49.894;10.358;2023-08-17T23:40:27;19.20;99.90
54158;DHT22;40065;49.894;10.358;2023-08-17T23:45:29;19.10;99.90
54158;DHT22;40065;49.894;10.358;2023-08-17T23:50:31;19.10;99.90
54158;DHT22;40065;49.894;10.358;2023-08-17T23:55:32;19.10;99.90
